Time,TemperatureF,DewpointF,PressureIn,WindDirection,WindDirectionDegrees,WindSpeedMPH,WindSpeedGustMPH,Humidity,HourlyPrecipIn,Conditions,Clouds,dailyrainin,SoftwareType,DateUTC
2013-11-08 00:03:00,51.8,44.0,30.36,NE,34,0.0,4.0,76,0.00,,,0.00,weatherlink.com 1.10,2013-11-08 06:03:00,
2013-11-08 00:18:00,51.5,45.0,30.36,NE,34,0.0,3.0,78,0.00,,,0.00,weatherlink.com 1.10,2013-11-08 06:18:00,
2013-11-08 00:33:00,51.5,45.0,30.35,North,9,1.0,5.0,78,0.00,,,0.00,weatherlink.com 1.10,2013-11-08 06:33:00,
2013-11-08 00:48:00,51.8,45.0,30.35,NE,51,3.0,3.0,78,0.00,,,0.00,weatherlink.com 1.10,2013-11-08 06:48:00,
2013-11-08 01:03:00,51.5,45.0,30.36,NE,51,0.0,2.0,78,0.00,,,0.00,weatherlink.com 1.10,2013-11-08 07:03:00,
2013-11-08 01:18:00,51.0,45.0,30.36,NE,51,0.0,2.0,80,0.00,,,0.00,weatherlink.com 1.10,2013-11-08 07:18:00,
2013-11-08 01:33:00,50.6,45.0,30.35,NE,51,0.0,1.0,82,0.00,,,0.00,weatherlink.com 1.10,2013-11-08 07:33:00,
2013-11-08 01:48:00,50.2,45.0,30.34,NE,51,0.0,0.0,82,0.00,,,0.00,weatherlink.com 1.10,2013-11-08 07:48:00,
2013-11-08 02:03:00,49.3,45.0,30.35,NE,51,0.0,1.0,84,0.00,,,0.00,weatherlink.com 1.10,2013-11-08 08:03:00,
2013-11-08 02:18:00,48.9,45.0,30.34,NE,51,0.0,1.0,86,0.00,,,0.00,weatherlink.com 1.10,2013-11-08 08:18:00,
2013-11-08 02:33:00,49.1,45.0,30.33,NE,45,0.0,2.0,87,0.00,,,0.00,weatherlink.com 1.10,2013-11-08 08:33:00,
2013-11-08 02:48:00,48.9,45.0,30.35,NE,45,0.0,1.0,86,0.00,,,0.00,weatherlink.com 1.10,2013-11-08 08:48:00,
2013-11-08 03:03:00,47.9,44.0,30.34,NE,45,0.0,1.0,85,0.00,,,0.00,weatherlink.com 1.10,2013-11-08 09:03:00,
2013-11-08 03:18:00,47.0,43.0,30.35,ESE,112,0.0,1.0,86,0.00,,,0.00,weatherlink.com 1.10,2013-11-08 09:18:00,
2013-11-08 03:33:00,46.4,43.0,30.34,ESE,112,0.0,0.0,87,0.00,,,0.00,weatherlink.com 1.10,2013-11-08 09:33:00,
2013-11-08 03:48:00,46.0,43.0,30.33,ESE,112,0.0,0.0,88,0.00,,,0.00,weatherlink.com 1.10,2013-11-08 09:48:00,
2013-11-08 04:03:00,45.9,43.0,30.33,ESE,112,0.0,1.0,90,0.00,,,0.00,weatherlink.com 1.10,2013-11-08 10:03:00,
2013-11-08 04:18:00,46.0,44.0,30.33,ESE,112,0.0,0.0,91,0.00,,,0.00,weatherlink.com 1.10,2013-11-08 10:18:00,
2013-11-08 04:33:00,45.8,43.0,30.33,ESE,112,0.0,2.0,91,0.00,,,0.00,weatherlink.com 1.10,2013-11-08 10:33:00,
2013-11-08 04:48:00,45.8,43.0,30.32,ESE,112,0.0,0.0,91,0.00,,,0.00,weatherlink.com 1.10,2013-11-08 10:48:00,
2013-11-08 05:03:00,45.8,44.0,30.32,ESE,112,0.0,0.0,92,0.00,,,0.00,weatherlink.com 1.10,2013-11-08 11:03:00,
2013-11-08 05:18:00,45.9,44.0,30.33,ESE,112,0.0,1.0,92,0.00,,,0.00,weatherlink.com 1.10,2013-11-08 11:18:00,
2013-11-08 05:33:00,45.8,44.0,30.33,ESE,112,0.0,0.0,92,0.00,,,0.00,weatherlink.com 1.10,2013-11-08 11:33:00,
2013-11-08 05:48:00,45.8,44.0,30.33,ESE,112,0.0,1.0,92,0.00,,,0.00,weatherlink.com 1.10,2013-11-08 11:48:00,
2013-11-08 06:03:00,45.8,44.0,30.34,ESE,112,0.0,0.0,92,0.00,,,0.00,weatherlink.com 1.10,2013-11-08 12:03:00,
2013-11-08 06:18:00,45.8,44.0,30.34,ESE,112,0.0,0.0,92,0.00,,,0.00,weatherlink.com 1.10,2013-11-08 12:18:00,
2013-11-08 06:33:00,46.1,44.0,30.34,ESE,112,0.0,0.0,93,0.00,,,0.00,weatherlink.com 1.10,2013-11-08 12:33:00,
2013-11-08 06:48:00,46.5,45.0,30.34,ESE,112,0.0,0.0,93,0.00,,,0.00,weatherlink.com 1.10,2013-11-08 12:48:00,
2013-11-08 07:03:00,46.7,45.0,30.34,ESE,112,0.0,0.0,94,0.00,,,0.00,weatherlink.com 1.10,2013-11-08 13:03:00,
2013-11-08 07:18:00,46.9,45.0,30.34,ESE,112,0.0,1.0,94,0.00,,,0.00,weatherlink.com 1.10,2013-11-08 13:18:00,
2013-11-08 07:33:00,47.2,46.0,30.35,ESE,112,0.0,0.0,94,0.00,,,0.00,weatherlink.com 1.10,2013-11-08 13:33:00,
2013-11-08 07:48:00,47.8,46.0,30.36,ESE,112,0.0,0.0,94,0.00,,,0.00,weatherlink.com 1.10,2013-11-08 13:48:00,
2013-11-08 08:04:00,48.5,47.0,30.37,ESE,112,1.0,2.0,94,0.00,,,0.00,weatherlink.com 1.10,2013-11-08 14:04:00,
2013-11-08 08:19:00,49.5,48.0,30.37,ESE,112,0.0,1.0,95,0.00,,,0.00,weatherlink.com 1.10,2013-11-08 14:19:00,
2013-11-08 08:34:00,50.3,49.0,30.37,ESE,112,0.0,0.0,94,0.00,,,0.00,weatherlink.com 1.10,2013-11-08 14:34:00,
2013-11-08 08:49:00,51.5,50.0,30.37,ESE,112,0.0,1.0,93,0.00,,,0.00,weatherlink.com 1.10,2013-11-08 14:49:00,
2013-11-08 09:04:00,53.0,48.0,30.37,NNE,19,1.0,6.0,84,0.00,,,0.00,weatherlink.com 1.10,2013-11-08 15:04:00,
2013-11-08 09:19:00,54.1,48.0,30.37,North,350,3.0,3.0,80,0.00,,,0.00,weatherlink.com 1.10,2013-11-08 15:19:00,
2013-11-08 09:34:00,55.0,49.0,30.37,NNE,12,0.0,2.0,79,0.00,,,0.00,weatherlink.com 1.10,2013-11-08 15:34:00,
2013-11-08 09:49:00,55.8,49.0,30.37,NE,36,0.0,3.0,77,0.00,,,0.00,weatherlink.com 1.10,2013-11-08 15:49:00,
2013-11-08 10:04:00,56.7,48.0,30.36,North,5,1.0,6.0,73,0.00,,,0.00,weatherlink.com 1.10,2013-11-08 16:04:00,
2013-11-08 10:19:00,57.5,48.0,30.36,NNW,342,2.0,4.0,71,0.00,,,0.00,weatherlink.com 1.10,2013-11-08 16:19:00,
2013-11-08 10:34:00,58.7,46.0,30.35,North,5,4.0,7.0,62,0.00,,,0.00,weatherlink.com 1.10,2013-11-08 16:34:00,
2013-11-08 10:49:00,59.2,46.0,30.34,ENE,57,3.0,7.0,63,0.00,,,0.00,weatherlink.com 1.10,2013-11-08 16:49:00,
2013-11-08 11:04:00,59.5,46.0,30.34,NE,43,2.0,7.0,62,0.00,,,0.00,weatherlink.com 1.10,2013-11-08 17:04:00,
2013-11-08 11:19:00,60.1,46.0,30.33,North,360,7.0,7.0,61,0.00,,,0.00,weatherlink.com 1.10,2013-11-08 17:19:00,
2013-11-08 11:34:00,60.3,47.0,30.32,ENE,65,1.0,4.0,62,0.00,,,0.00,weatherlink.com 1.10,2013-11-08 17:34:00,
2013-11-08 11:49:00,60.9,48.0,30.31,NNE,20,4.0,7.0,62,0.00,,,0.00,weatherlink.com 1.10,2013-11-08 17:49:00,
2013-11-08 12:04:00,61.9,46.0,30.30,NNW,344,7.0,7.0,57,0.00,,,0.00,weatherlink.com 1.10,2013-11-08 18:04:00,
2013-11-08 12:19:00,61.9,46.0,30.29,SSE,150,2.0,7.0,56,0.00,,,0.00,weatherlink.com 1.10,2013-11-08 18:19:00,
2013-11-08 12:34:00,62.1,46.0,30.28,NNW,337,5.0,7.0,57,0.00,,,0.00,weatherlink.com 1.10,2013-11-08 18:34:00,
2013-11-08 12:49:00,62.9,45.0,30.27,NNE,16,3.0,7.0,53,0.00,,,0.00,weatherlink.com 1.10,2013-11-08 18:49:00,
2013-11-08 13:04:00,62.7,46.0,30.26,NNE,19,6.0,10.0,54,0.00,,,0.00,weatherlink.com 1.10,2013-11-08 19:04:00,
2013-11-08 13:19:00,63.3,46.0,30.25,NE,37,5.0,7.0,54,0.00,,,0.00,weatherlink.com 1.10,2013-11-08 19:19:00,
2013-11-08 13:34:00,63.2,44.0,30.24,ENE,67,1.0,7.0,50,0.00,,,0.00,weatherlink.com 1.10,2013-11-08 19:34:00,
2013-11-08 13:49:00,63.4,44.0,30.25,North,5,3.0,6.0,50,0.00,,,0.00,weatherlink.com 1.10,2013-11-08 19:49:00,
2013-11-08 14:05:00,62.9,42.0,30.24,ESE,115,1.0,5.0,46,0.00,,,0.00,weatherlink.com 1.10,2013-11-08 20:05:00,
2013-11-08 14:20:00,63.3,42.0,30.24,East,93,3.0,5.0,46,0.00,,,0.00,weatherlink.com 1.10,2013-11-08 20:20:00,
2013-11-08 14:35:00,63.4,44.0,30.24,NNW,338,2.0,6.0,49,0.00,,,0.00,weatherlink.com 1.10,2013-11-08 20:35:00,
2013-11-08 14:50:00,63.1,43.0,30.24,SE,138,1.0,5.0,49,0.00,,,0.00,weatherlink.com 1.10,2013-11-08 20:50:00,
2013-11-08 15:05:00,63.0,43.0,30.23,NNW,341,4.0,6.0,49,0.00,,,0.00,weatherlink.com 1.10,2013-11-08 21:05:00,
2013-11-08 15:20:00,62.7,43.0,30.23,NE,36,1.0,5.0,49,0.00,,,0.00,weatherlink.com 1.10,2013-11-08 21:20:00,
2013-11-08 15:35:00,62.6,45.0,30.23,NNE,24,0.0,4.0,52,0.00,,,0.00,weatherlink.com 1.10,2013-11-08 21:35:00,
2013-11-08 15:50:00,62.5,45.0,30.23,NNW,348,0.0,5.0,53,0.00,,,0.00,weatherlink.com 1.10,2013-11-08 21:50:00,
2013-11-08 16:05:00,62.0,47.0,30.22,NNW,348,0.0,2.0,58,0.00,,,0.00,weatherlink.com 1.10,2013-11-08 22:05:00,
2013-11-08 16:20:00,61.6,48.0,30.21,NNW,348,0.0,0.0,61,0.00,,,0.00,weatherlink.com 1.10,2013-11-08 22:20:00,
2013-11-08 16:35:00,61.1,48.0,30.21,NNW,348,0.0,0.0,63,0.00,,,0.00,weatherlink.com 1.10,2013-11-08 22:35:00,
2013-11-08 16:50:00,60.4,48.0,30.20,NNW,348,0.0,0.0,65,0.00,,,0.00,weatherlink.com 1.10,2013-11-08 22:50:00,
2013-11-08 17:05:00,59.3,48.0,30.21,NNW,348,0.0,0.0,67,0.00,,,0.00,weatherlink.com 1.10,2013-11-08 23:05:00,
2013-11-08 17:20:00,58.3,48.0,30.20,NNW,348,0.0,0.0,68,0.00,,,0.00,weatherlink.com 1.10,2013-11-08 23:20:00,
2013-11-08 17:35:00,57.2,49.0,30.20,NNW,348,0.0,0.0,74,0.00,,,0.00,weatherlink.com 1.10,2013-11-08 23:35:00,
2013-11-08 17:50:00,56.5,49.0,30.20,NNW,348,0.0,0.0,76,0.00,,,0.00,weatherlink.com 1.10,2013-11-08 23:50:00,
2013-11-08 18:05:00,55.7,50.0,30.20,NNW,348,0.0,0.0,80,0.00,,,0.00,weatherlink.com 1.10,2013-11-09 00:05:00,
2013-11-08 18:20:00,55.1,49.0,30.21,NNW,348,0.0,0.0,81,0.00,,,0.00,weatherlink.com 1.10,2013-11-09 00:20:00,
2013-11-08 18:35:00,54.5,49.0,30.21,NNW,348,0.0,0.0,82,0.00,,,0.00,weatherlink.com 1.10,2013-11-09 00:35:00,
2013-11-08 18:50:00,53.7,49.0,30.21,NNW,348,0.0,0.0,83,0.00,,,0.00,weatherlink.com 1.10,2013-11-09 00:50:00,
2013-11-08 19:05:00,52.9,49.0,30.20,NNW,348,0.0,1.0,85,0.00,,,0.00,weatherlink.com 1.10,2013-11-09 01:05:00,
2013-11-08 19:20:00,52.4,48.0,30.20,NNW,348,0.0,0.0,85,0.00,,,0.00,weatherlink.com 1.10,2013-11-09 01:20:00,
2013-11-08 19:35:00,52.1,48.0,30.20,NNW,348,0.0,0.0,86,0.00,,,0.00,weatherlink.com 1.10,2013-11-09 01:35:00,
2013-11-08 19:50:00,51.8,48.0,30.21,NNW,348,0.0,0.0,86,0.00,,,0.00,weatherlink.com 1.10,2013-11-09 01:50:00,
2013-11-08 20:05:00,51.5,48.0,30.21,NNW,348,0.0,0.0,87,0.00,,,0.00,weatherlink.com 1.10,2013-11-09 02:05:00,
2013-11-08 20:20:00,51.4,48.0,30.21,NNW,348,0.0,0.0,88,0.00,,,0.00,weatherlink.com 1.10,2013-11-09 02:20:00,
2013-11-08 20:35:00,51.3,48.0,30.21,NNW,348,0.0,0.0,88,0.00,,,0.00,weatherlink.com 1.10,2013-11-09 02:35:00,
2013-11-08 20:50:00,51.2,48.0,30.21,NNW,348,0.0,0.0,88,0.00,,,0.00,weatherlink.com 1.10,2013-11-09 02:50:00,
2013-11-08 21:05:00,51.2,48.0,30.21,NNW,348,0.0,0.0,88,0.00,,,0.00,weatherlink.com 1.10,2013-11-09 03:05:00,
2013-11-08 21:20:00,51.1,48.0,30.20,NNW,348,0.0,0.0,89,0.00,,,0.00,weatherlink.com 1.10,2013-11-09 03:20:00,
2013-11-08 21:35:00,51.0,48.0,30.20,NNW,348,0.0,0.0,89,0.00,,,0.00,weatherlink.com 1.10,2013-11-09 03:35:00,
2013-11-08 21:50:00,50.9,48.0,30.20,NNW,348,0.0,0.0,89,0.00,,,0.00,weatherlink.com 1.10,2013-11-09 03:50:00,
2013-11-08 22:05:00,50.8,48.0,30.20,NNW,348,0.0,0.0,89,0.00,,,0.00,weatherlink.com 1.10,2013-11-09 04:05:00,
2013-11-08 22:20:00,50.8,48.0,30.20,NNW,348,0.0,0.0,89,0.00,,,0.00,weatherlink.com 1.10,2013-11-09 04:20:00,
2013-11-08 22:35:00,50.6,48.0,30.19,NNW,348,0.0,0.0,89,0.00,,,0.00,weatherlink.com 1.10,2013-11-09 04:35:00,
2013-11-08 22:50:00,50.6,48.0,30.19,NNW,348,0.0,0.0,90,0.00,,,0.00,weatherlink.com 1.10,2013-11-09 04:50:00,
2013-11-08 23:05:00,50.6,48.0,30.19,NNW,348,0.0,0.0,91,0.00,,,0.00,weatherlink.com 1.10,2013-11-09 05:05:00,
2013-11-08 23:20:00,50.7,48.0,30.18,NNW,348,0.0,0.0,91,0.00,,,0.00,weatherlink.com 1.10,2013-11-09 05:20:00,
2013-11-08 23:35:00,50.6,48.0,30.18,NNW,348,0.0,0.0,91,0.00,,,0.00,weatherlink.com 1.10,2013-11-09 05:35:00,
2013-11-08 23:50:00,50.6,48.0,30.17,NNW,348,0.0,0.0,91,0.00,,,0.00,weatherlink.com 1.10,2013-11-09 05:50:00,